Terminal Aerodrome Forecast
Issued by NWS Wilmington, OH

Current Version | Previous Version | Graphics & Text | Print | Product List | Glossary On
Versions: 1 2 3 4 5 6 7 8 9 10 11 12 13 14 15 16 17 18 19
000
FTUS41 KILN 142333
TAFDAY
TAF
KDAY 142333Z 1500/1524 19009KT P6SM SCT250
     FM150400 19010KT P6SM SCT250 WS020/21040KT
     FM150700 20012G19KT P6SM SCT080 WS020/22040KT
     FM151300 22017G26KT P6SM VCSH BKN035
     FM151500 23018G32KT 5SM -SHRA OVC025
     FM151800 27018G30KT P6SM OVC045=

USA.gov is the U.S. government's official web portal to all federal, state and local government web resources and services.